Thursday, November 21, 2019, 10:11 PM EST
Back to Local

KCEF, Chicopee Falls / Westover Air Force Base

Location: Chicopee, MA, United States Lat: 42.2
Local Time: 10:11 PM EST ( 3:11 GMT) Lon: -72.533
Time Zone: US/Eastern Elev: 246 ft

Show me the last for .
Show Decoded

2019-11-21 20:56 METAR KCEF 220156Z 16004KT 10SM BKN140 OVC200 03/M01 A3000 RMK AO2A SLPNO
                 T00291006 =
2019-11-21 18:56 METAR KCEF 212356Z 00000KT 10SM BKN250 01/M01 A3005 RMK AO2A SLP185 T00131013
                 10105 20007 55002 =
2019-11-21 17:56 METAR KCEF 212256Z 17003KT 10SM BKN250 02/M01 A3005 RMK AO2A SLP185 T00201009 =
2019-11-21 16:56 METAR KCEF 212156Z 00000KT 10SM BKN250 04/M02 A3005 RMK AO2A SLP184 T00421018 =
2019-11-21 15:56 METAR KCEF 212056Z 00000KT 10SM SCT250 09/M01 A3006 RMK AO2A SLP187 T00871011
                 56009 =
2019-11-21 14:56 METAR KCEF 211956Z 00000KT 10SM FEW250 10/M02 A3006 RMK AO2A SLP187 T00971023 =
2019-11-21 13:56 METAR KCEF 211856Z COR 00000KT 10SM FEW250 09/M02 A3006 RMK AO2A SLP187 COR 1859
                 =
2019-11-21 12:56 METAR KCEF 211756Z 00000KT 10SM FEW250 08/M02 A3008 RMK AO2A SLP194 T00841020
                 10084 21036 =
2019-11-21 11:56 METAR KCEF 211656Z 01005KT 10SM CLR 07/M02 A3011 RMK AO2A SLP204 T00731017 =
2019-11-21 10:56 METAR KCEF 211556Z 33004KT 10SM CLR 06/M02 A3015 RMK AO2A SLP218 T00591017 =
2019-11-21 09:56 METAR KCEF 211456Z 34007KT 10SM FEW250 04/M02 A3017 RMK AO2A SLP225 T00381020
                 52009 =
2019-11-21 08:56 METAR KCEF 211356Z 35004KT 10SM CLR 02/M01 A3016 RMK AO2A SLP222 T00171007 =
2019-11-21 07:56 METAR KCEF 211256Z 00000KT 10SM CLR M01/M02 A3016 RMK AO2A SLP222 T10101016 =
2019-11-21 06:56 METAR KCEF 211156Z 00000KT 10SM MIFG CLR M03/M04 A3014 RMK AO2A SLP215 70004
                 52017 =
2019-11-21 05:56 METAR KCEF 211056Z AUTO 00000KT 10SM CLR M03/M03 A3012 RMK AO2 SLPNO =
2019-11-21 04:56 METAR KCEF 210956Z AUTO 00000KT 10SM CLR M03/M04 A3011 RMK AO2 SLPNO =
2019-11-21 03:56 METAR KCEF 210856Z AUTO 36005KT 10SM CLR 00/M02 A3009 RMK AO2 SLP198 T10051022
                 52013 =
2019-11-21 02:56 METAR KCEF 210756Z AUTO 03003KT 10SM CLR M01/M03 A3008 RMK AO2 SLP195 =
2019-11-21 01:56 METAR KCEF 210656Z AUTO 36004KT 10SM CLR 00/M02 A3007 RMK AO2 SLP191 T00041020 =
2019-11-21 00:56 METAR KCEF 210556Z AUTO 00000KT 10SM CLR 01/M01 A3005 RMK AO2 SLP184 T00131011
                 10023 20007 51005 =
2019-11-20 23:56 METAR KCEF 210456Z AUTO 27004KT 10SM OVC038 02/M01 A3005 RMK AO2 SLP184
                 T00151007 400480013 =
2019-11-20 22:56 METAR KCEF 210356Z 31003KT 10SM BKN037 02/M01 A3005 RMK AO2A SLP184 T00201006 =

Support USWX by starting your Amazon purchase here.